Time;durP1;ratioP1;P1;durP2;ratioP2;P2;SDS_P1;SDS_P2;PMS_P1;PMS_P2;Temp;Humidity;BMP_temperature;BMP_pressure;BME280_temperature;BME280_humidity;BME280_pressure;Samples;Min_cycle;Max_cycle;Signal;HPM_P1;HPM_P2
2022/09/27 00:00:10;;;;;;;0.88;0.57;;;;;;;;;;8323240;28;20025;-60
2022/09/27 00:04:10;;;;;;;1.08;0.70;;;;;;;;;;8322168;28;20083;-59
2022/09/27 00:08:11;;;;;;;2.05;0.60;;;;;;;;;;8324650;28;20021;-59
2022/09/27 00:12:11;;;;;;;1.30;0.60;;;;;;;;;;8324156;28;20028;-60
2022/09/27 00:16:11;;;;;;;1.02;0.80;;;;;;;;;;8322413;28;20345;-60
2022/09/27 00:20:11;;;;;;;3.65;0.90;;;;;;;;;;8322086;28;20099;-59
2022/09/27 00:24:16;;;;;;;3.40;0.77;;;;;;;;;;8322385;28;20135;-60
2022/09/27 00:28:16;;;;;;;3.50;1.25;;;;;;;;;;8324939;28;20036;-59
2022/09/27 00:32:17;;;;;;;2.65;0.90;;;;;;;;;;8324645;28;20035;-59
2022/09/27 00:36:18;;;;;;;2.73;0.90;;;;;;;;;;8325963;28;20041;-60
2022/09/27 00:40:22;;;;;;;3.38;0.90;;;;;;;;;;8330591;28;20357;-62
2022/09/27 00:44:25;;;;;;;4.40;1.27;;;;;;;;;;8329712;28;20060;-59
2022/09/27 00:48:28;;;;;;;4.72;1.10;;;;;;;;;;8327083;28;20067;-59
2022/09/27 00:52:41;;;;;;;1.88;1.05;;;;;;;;;;8329960;28;20741;-60
2022/09/27 00:56:42;;;;;;;4.97;1.05;;;;;;;;;;8325800;28;20057;-60
2022/09/27 01:00:44;;;;;;;2.33;1.13;;;;;;;;;;8329479;28;20040;-60
2022/09/27 01:04:46;;;;;;;4.00;1.10;;;;;;;;;;8329242;28;20028;-59
2022/09/27 01:08:46;;;;;;;2.78;0.77;;;;;;;;;;8328829;28;20526;-60
2022/09/27 01:12:49;;;;;;;2.78;0.82;;;;;;;;;;8326492;28;20029;-59
2022/09/27 01:16:58;;;;;;;3.03;1.20;;;;;;;;;;8327229;28;20139;-60
2022/09/27 01:21:02;;;;;;;3.70;1.55;;;;;;;;;;8326620;28;20025;-59
2022/09/27 01:25:12;;;;;;;2.28;1.08;;;;;;;;;;8327627;28;20028;-59
2022/09/27 01:29:12;;;;;;;1.88;0.93;;;;;;;;;;8329737;28;20025;-59
2022/09/27 01:33:22;;;;;;;1.58;0.88;;;;;;;;;;8329387;28;20033;-58
2022/09/27 01:37:22;;;;;;;2.22;1.05;;;;;;;;;;8327857;28;20064;-59
2022/09/27 01:41:35;;;;;;;4.10;1.15;;;;;;;;;;8328367;28;20090;-59
2022/09/27 01:45:54;;;;;;;2.00;0.82;;;;;;;;;;8325283;28;20071;-58
2022/09/27 01:50:00;;;;;;;2.97;1.00;;;;;;;;;;8326815;28;20518;-60
2022/09/27 01:54:01;;;;;;;3.97;1.23;;;;;;;;;;8325930;28;20025;-59
2022/09/27 01:58:05;;;;;;;3.33;1.20;;;;;;;;;;8330166;28;20017;-60
2022/09/27 02:02:06;;;;;;;;;;;;;;;;;;8325668;28;20207;-59
2022/09/27 02:06:29;;;;;;;2.58;1.00;;;;;;;;;;8325805;28;19917;-59
2022/09/27 02:10:32;;;;;;;3.53;1.30;;;;;;;;;;8310575;28;20028;-59
2022/09/27 02:14:40;;;;;;;4.27;1.10;;;;;;;;;;8324254;28;20020;-59
2022/09/27 02:18:49;;;;;;;1.77;1.25;;;;;;;;;;8328653;28;20041;-58
2022/09/27 02:22:53;;;;;;;1.75;0.90;;;;;;;;;;8324766;28;20018;-59
2022/09/27 02:27:09;;;;;;;4.28;0.90;;;;;;;;;;8325540;28;20028;-59
2022/09/27 02:31:10;;;;;;;2.35;1.02;;;;;;;;;;8326176;28;20025;-59
2022/09/27 02:35:36;;;;;;;2.67;1.20;;;;;;;;;;8324669;28;20071;-60
2022/09/27 02:39:37;;;;;;;2.80;1.10;;;;;;;;;;8321501;28;20279;-60
2022/09/27 02:43:37;;;;;;;3.22;1.02;;;;;;;;;;8323824;28;20017;-60
2022/09/27 02:47:50;;;;;;;1.23;0.90;;;;;;;;;;8327193;28;20030;-60
2022/09/27 02:52:05;;;;;;;1.58;0.80;;;;;;;;;;8323629;28;20035;-59
2022/09/27 02:56:15;;;;;;;0.77;0.68;;;;;;;;;;8325693;28;20031;-60
2022/09/27 03:00:18;;;;;;;2.33;0.85;;;;;;;;;;8323060;28;20961;-60
2022/09/27 03:04:30;;;;;;;2.22;0.80;;;;;;;;;;8323933;28;20022;-59
2022/09/27 03:08:30;;;;;;;1.55;0.70;;;;;;;;;;8326617;28;20953;-59
2022/09/27 03:12:31;;;;;;;2.17;0.80;;;;;;;;;;8323100;28;20027;-59
2022/09/27 03:16:31;;;;;;;1.60;0.80;;;;;;;;;;8324584;28;20310;-59
2022/09/27 03:20:32;;;;;;;1.48;0.63;;;;;;;;;;8324417;28;20052;-59
2022/09/27 03:24:32;;;;;;;1.55;0.70;;;;;;;;;;8323300;28;20028;-59
2022/09/27 03:28:32;;;;;;;2.20;0.70;;;;;;;;;;8321078;28;20056;-59
2022/09/27 03:32:32;;;;;;;1.70;0.70;;;;;;;;;;8320066;28;20028;-59
2022/09/27 03:36:33;;;;;;;1.35;0.70;;;;;;;;;;8322050;28;20305;-60
2022/09/27 03:40:33;;;;;;;2.00;0.60;;;;;;;;;;8323275;28;20162;-59
2022/09/27 03:44:33;;;;;;;1.95;0.70;;;;;;;;;;8319475;28;20022;-59
2022/09/27 03:48:33;;;;;;;1.67;0.70;;;;;;;;;;8320189;28;20040;-59
2022/09/27 03:52:34;;;;;;;2.08;0.60;;;;;;;;;;8318018;28;20014;-59
2022/09/27 03:56:34;;;;;;;3.95;0.80;;;;;;;;;;8318859;28;20025;-60
2022/09/27 04:00:36;;;;;;;0.45;0.45;;;;;;;;;;8320028;28;20037;-59
2022/09/27 04:04:36;;;;;;;2.08;0.70;;;;;;;;;;8320176;28;20123;-60
2022/09/27 04:08:36;;;;;;;1.60;1.00;;;;;;;;;;8322908;28;20049;-59
2022/09/27 04:12:40;;;;;;;1.05;0.82;;;;;;;;;;8317781;28;20035;-59
2022/09/27 04:16:40;;;;;;;2.10;1.20;;;;;;;;;;8318752;28;20040;-65
2022/09/27 04:20:40;;;;;;;1.08;0.80;;;;;;;;;;8317291;28;20033;-59
2022/09/27 04:24:40;;;;;;;1.08;0.90;;;;;;;;;;8317580;28;20035;-59
2022/09/27 04:28:41;;;;;;;2.50;1.00;;;;;;;;;;8283509;28;1050979;-59
2022/09/27 04:32:42;;;;;;;0.68;0.65;;;;;;;;;;8323112;28;20040;-59
2022/09/27 04:36:42;;;;;;;1.70;0.90;;;;;;;;;;8325203;28;20127;-59
2022/09/27 04:40:43;;;;;;;0.50;0.50;;;;;;;;;;8320997;28;20074;-60
2022/09/27 04:44:46;;;;;;;0.95;0.50;;;;;;;;;;8323944;28;20036;-59
2022/09/27 04:48:47;;;;;;;1.10;0.60;;;;;;;;;;8321717;28;20489;-58
2022/09/27 04:52:51;;;;;;;0.57;0.50;;;;;;;;;;8318951;28;20080;-60
2022/09/27 04:56:51;;;;;;;0.57;0.55;;;;;;;;;;8323580;28;20033;-58
2022/09/27 05:00:52;;;;;;;2.15;0.68;;;;;;;;;;8321933;28;20051;-59
2022/09/27 05:04:55;;;;;;;1.75;0.70;;;;;;;;;;8322919;28;20029;-59
2022/09/27 05:08:55;;;;;;;0.90;0.55;;;;;;;;;;8322951;28;20106;-59
2022/09/27 05:12:55;;;;;;;5.55;0.70;;;;;;;;;;8320915;28;20021;-59
2022/09/27 05:16:56;;;;;;;1.35;0.65;;;;;;;;;;8323302;28;20049;-59
2022/09/27 05:20:58;;;;;;;3.00;0.70;;;;;;;;;;8325192;28;20086;-58
2022/09/27 05:24:58;;;;;;;0.60;0.60;;;;;;;;;;8326502;28;20715;-59
2022/09/27 05:28:58;;;;;;;1.17;0.65;;;;;;;;;;8324577;28;20482;-59
2022/09/27 05:32:58;;;;;;;0.60;0.60;;;;;;;;;;8327800;28;20037;-60
2022/09/27 05:36:59;;;;;;;1.27;0.60;;;;;;;;;;8328431;28;20130;-59
2022/09/27 05:40:59;;;;;;;1.58;1.15;;;;;;;;;;8329905;28;20032;-60
2022/09/27 05:44:59;;;;;;;0.60;0.60;;;;;;;;;;8330360;28;20064;-60
2022/09/27 05:48:59;;;;;;;2.10;0.60;;;;;;;;;;8327428;28;20040;-59
2022/09/27 05:52:59;;;;;;;0.57;0.57;;;;;;;;;;8325952;28;20033;-60
2022/09/27 05:57:00;;;;;;;1.92;0.70;;;;;;;;;;8327108;28;20020;-59
2022/09/27 06:01:00;;;;;;;2.22;0.70;;;;;;;;;;8326089;28;20041;-59
2022/09/27 06:05:02;;;;;;;0.60;0.60;;;;;;;;;;8323855;28;20113;-59
2022/09/27 06:09:02;;;;;;;1.98;0.80;;;;;;;;;;8320361;28;20307;-60
2022/09/27 06:13:04;;;;;;;1.58;0.50;;;;;;;;;;8321055;28;20021;-60
2022/09/27 06:17:04;;;;;;;0.38;0.38;;;;;;;;;;8302073;28;20406;-60
2022/09/27 06:21:05;;;;;;;0.40;0.40;;;;;;;;;;8285499;28;20040;-59
2022/09/27 06:25:05;;;;;;;7.35;0.70;;;;;;;;;;8286263;28;20633;-60
2022/09/27 06:29:06;;;;;;;1.60;0.40;;;;;;;;;;8286200;28;20112;-59
2022/09/27 06:33:08;;;;;;;0.50;0.50;;;;;;;;;;8285890;28;20036;-60
2022/09/27 06:37:08;;;;;;;0.40;0.40;;;;;;;;;;8288317;28;20032;-59
2022/09/27 06:41:08;;;;;;;0.85;0.60;;;;;;;;;;8284595;28;20696;-58
2022/09/27 06:45:09;;;;;;;2.72;0.88;;;;;;;;;;8285919;28;20641;-59
2022/09/27 06:49:09;;;;;;;1.17;0.77;;;;;;;;;;8321288;28;20059;-59
2022/09/27 06:53:10;;;;;;;0.50;0.50;;;;;;;;;;8317532;28;20029;-60
2022/09/27 07:00:22;;;;;;;3.60;0.40;;;;;;;;;;8319961;28;20934;-60
2022/09/27 07:01:31;;;;;;;0.93;0.40;;;;;;;;;;8305350;28;20986;-59
2022/09/27 07:05:34;;;;;;;2.63;0.50;;;;;;;;;;8286932;28;20086;-59
2022/09/27 07:09:37;;;;;;;0.30;0.30;;;;;;;;;;8286895;28;20396;-59
2022/09/27 07:13:41;;;;;;;0.47;0.47;;;;;;;;;;8286388;28;20033;-60
2022/09/27 07:17:41;;;;;;;2.70;0.40;;;;;;;;;;8287209;28;20057;-60
2022/09/27 07:21:42;;;;;;;0.65;0.43;;;;;;;;;;8289711;28;20033;-60
2022/09/27 07:25:42;;;;;;;0.52;0.50;;;;;;;;;;8284217;28;20028;-60
2022/09/27 07:29:42;;;;;;;0.60;0.60;;;;;;;;;;8284672;28;20043;-60
2022/09/27 07:33:42;;;;;;;0.55;0.50;;;;;;;;;;8288980;28;20076;-59
2022/09/27 07:37:43;;;;;;;1.20;0.60;;;;;;;;;;8285256;28;20029;-59
2022/09/27 07:41:44;;;;;;;0.50;0.40;;;;;;;;;;8284424;28;20271;-61
2022/09/27 07:45:44;;;;;;;2.80;0.40;;;;;;;;;;8283496;28;20053;-60
2022/09/27 07:49:44;;;;;;;0.50;0.50;;;;;;;;;;8285531;28;20021;-60
2022/09/27 07:53:44;;;;;;;1.30;0.50;;;;;;;;;;8283350;28;20289;-61
2022/09/27 07:57:44;;;;;;;0.40;0.40;;;;;;;;;;8285578;28;20703;-60
2022/09/27 08:01:45;;;;;;;0.80;0.65;;;;;;;;;;8284593;28;20125;-61
2022/09/27 08:05:46;;;;;;;1.95;0.60;;;;;;;;;;8283947;28;20436;-60
2022/09/27 08:09:46;;;;;;;0.73;0.60;;;;;;;;;;8282678;28;20100;-61
2022/09/27 08:13:48;;;;;;;0.40;0.40;;;;;;;;;;8284472;28;20049;-60
2022/09/27 08:17:49;;;;;;;0.40;0.40;;;;;;;;;;8288561;28;20118;-61
2022/09/27 08:21:50;;;;;;;0.40;0.40;;;;;;;;;;8285523;28;20025;-61
2022/09/27 08:25:52;;;;;;;0.47;0.40;;;;;;;;;;8283640;28;20030;-60
2022/09/27 08:29:52;;;;;;;0.50;0.38;;;;;;;;;;8281923;28;20021;-60
2022/09/27 08:33:52;;;;;;;0.40;0.40;;;;;;;;;;8284102;28;20069;-59
2022/09/27 08:37:53;;;;;;;0.40;0.40;;;;;;;;;;8287101;28;20322;-60
2022/09/27 08:42:00;;;;;;;0.30;0.30;;;;;;;;;;8285700;28;20061;-60
2022/09/27 08:46:09;;;;;;;1.20;0.40;;;;;;;;;;8284687;28;20161;-60
2022/09/27 08:50:17;;;;;;;0.40;0.40;;;;;;;;;;8286589;28;20768;-60
2022/09/27 08:54:27;;;;;;;0.30;0.30;;;;;;;;;;8284638;28;20064;-60
2022/09/27 08:58:27;;;;;;;0.40;0.40;;;;;;;;;;8290614;28;20013;-60
2022/09/27 09:02:27;;;;;;;0.30;0.30;;;;;;;;;;8289454;28;20269;-60
2022/09/27 09:06:30;;;;;;;0.63;0.40;;;;;;;;;;8289056;28;20068;-59
2022/09/27 09:15:08;;;;;;;1.13;0.40;;;;;;;;;;8290598;28;20064;-60
2022/09/27 09:19:18;;;;;;;0.68;0.40;;;;;;;;;;8287012;28;20126;-59
2022/09/27 09:23:18;;;;;;;0.77;0.50;;;;;;;;;;8287498;28;20325;-60
2022/09/27 09:27:21;;;;;;;2.85;0.75;;;;;;;;;;8289671;28;20065;-60
2022/09/27 09:31:32;;;;;;;1.50;0.70;;;;;;;;;;8289889;28;20099;-60
2022/09/27 09:35:41;;;;;;;1.10;0.50;;;;;;;;;;8291786;28;20284;-59
2022/09/27 09:39:48;;;;;;;1.13;0.60;;;;;;;;;;8290265;28;20029;-59
2022/09/27 09:43:58;;;;;;;1.55;0.73;;;;;;;;;;8287887;28;20958;-59
2022/09/27 09:48:02;;;;;;;3.08;0.60;;;;;;;;;;8285285;28;20033;-60
2022/09/27 09:52:10;;;;;;;1.13;0.60;;;;;;;;;;8291849;28;20050;-60
2022/09/27 09:56:19;;;;;;;1.60;0.60;;;;;;;;;;8289904;28;20076;-60
2022/09/27 10:00:19;;;;;;;2.88;0.70;;;;;;;;;;8281489;28;20033;-60
2022/09/27 10:04:21;;;;;;;4.93;0.80;;;;;;;;;;8282792;28;20030;-59
2022/09/27 10:08:21;;;;;;;0.85;0.63;;;;;;;;;;8290996;28;20026;-59
2022/09/27 10:12:22;;;;;;;2.80;0.80;;;;;;;;;;8286509;28;20030;-60
2022/09/27 10:16:22;;;;;;;0.77;0.70;;;;;;;;;;8285296;28;20098;-59
2022/09/27 10:20:28;;;;;;;0.70;0.70;;;;;;;;;;8284661;28;20029;-60
2022/09/27 10:24:29;;;;;;;0.85;0.70;;;;;;;;;;8289831;28;20036;-59
2022/09/27 10:28:36;;;;;;;1.38;0.77;;;;;;;;;;8288759;28;20022;-59
2022/09/27 10:32:36;;;;;;;1.90;0.73;;;;;;;;;;8284643;28;20037;-60
2022/09/27 10:36:37;;;;;;;3.80;0.93;;;;;;;;;;8284311;28;20646;-59
2022/09/27 10:40:37;;;;;;;3.30;1.00;;;;;;;;;;8284721;28;20025;-60
2022/09/27 10:44:37;;;;;;;1.63;1.05;;;;;;;;;;8287822;28;20055;-59
2022/09/27 10:48:40;;;;;;;2.08;1.00;;;;;;;;;;8287121;28;20072;-61
2022/09/27 10:52:41;;;;;;;2.10;0.98;;;;;;;;;;8283025;28;20017;-60
2022/09/27 10:56:41;;;;;;;2.17;1.13;;;;;;;;;;8286431;28;20076;-60
2022/09/27 11:00:42;;;;;;;1.73;0.90;;;;;;;;;;8280594;28;20038;-60
2022/09/27 11:05:00;;;;;;;5.68;2.10;;;;;;;;;;8284314;28;20118;-60
2022/09/27 11:09:15;;;;;;;1.48;0.80;;;;;;;;;;8286224;28;20448;-60
2022/09/27 11:13:16;;;;;;;2.55;1.02;;;;;;;;;;8284419;28;20028;-60
2022/09/27 11:17:19;;;;;;;3.15;1.00;;;;;;;;;;8284340;28;20057;-61
2022/09/27 11:21:25;;;;;;;1.77;0.90;;;;;;;;;;8284610;28;20032;-60
2022/09/27 11:25:27;;;;;;;1.48;0.73;;;;;;;;;;8282659;28;20032;-60
2022/09/27 11:29:47;;;;;;;1.25;0.70;;;;;;;;;;8284405;28;20033;-60
2022/09/27 11:33:55;;;;;;;2.05;0.90;;;;;;;;;;8284576;28;20049;-60
2022/09/27 11:37:55;;;;;;;1.08;0.93;;;;;;;;;;8284108;28;20033;-60
2022/09/27 11:42:22;;;;;;;1.73;0.80;;;;;;;;;;8286620;28;20035;-60
2022/09/27 11:46:26;;;;;;;1.23;0.70;;;;;;;;;;8291403;28;20074;-60
2022/09/27 11:50:36;;;;;;;1.83;0.93;;;;;;;;;;8292664;28;20033;-60
2022/09/27 11:55:01;;;;;;;3.90;1.20;;;;;;;;;;8292030;28;20378;-60
2022/09/27 11:59:28;;;;;;;2.35;0.93;;;;;;;;;;8291245;28;20032;-59
2022/09/27 12:03:34;;;;;;;2.45;1.10;;;;;;;;;;8289836;28;20513;-59
2022/09/27 12:07:42;;;;;;;3.22;0.88;;;;;;;;;;8288381;28;20498;-60
2022/09/27 12:11:48;;;;;;;1.38;0.80;;;;;;;;;;8285750;28;20032;-60
2022/09/27 12:15:48;;;;;;;2.75;0.90;;;;;;;;;;8287955;28;20041;-60
2022/09/27 12:19:51;;;;;;;0.77;0.77;;;;;;;;;;8291181;28;20021;-59
2022/09/27 12:23:53;;;;;;;2.83;0.97;;;;;;;;;;8289595;28;20052;-60
2022/09/27 12:27:55;;;;;;;2.80;1.20;;;;;;;;;;8293397;28;20033;-59
2022/09/27 12:31:58;;;;;;;2.00;0.90;;;;;;;;;;8293427;28;20065;-60
2022/09/27 12:36:00;;;;;;;0.82;0.77;;;;;;;;;;8297281;28;20557;-60
2022/09/27 12:40:04;;;;;;;1.65;0.65;;;;;;;;;;8284773;28;21536;-59
2022/09/27 12:44:04;;;;;;;0.95;0.60;;;;;;;;;;8295387;28;20112;-60
2022/09/27 12:48:15;;;;;;;1.58;0.60;;;;;;;;;;8297667;28;20065;-59
2022/09/27 12:52:24;;;;;;;2.03;0.70;;;;;;;;;;8293664;28;20018;-60
2022/09/27 12:56:24;;;;;;;1.50;0.80;;;;;;;;;;8293608;28;20719;-60
2022/09/27 13:00:26;;;;;;;1.05;0.90;;;;;;;;;;8284352;28;20354;-61
2022/09/27 13:04:45;;;;;;;2.88;1.20;;;;;;;;;;8297213;28;20024;-59
2022/09/27 13:08:45;;;;;;;1.45;0.90;;;;;;;;;;8296379;28;20018;-59
2022/09/27 13:12:50;;;;;;;0.93;0.60;;;;;;;;;;8295799;28;20072;-60
2022/09/27 13:16:50;;;;;;;3.70;0.90;;;;;;;;;;8293516;28;20908;-59
2022/09/27 13:20:50;;;;;;;2.87;0.77;;;;;;;;;;8299050;28;20048;-60
2022/09/27 13:24:51;;;;;;;0.73;0.73;;;;;;;;;;8295792;28;20296;-59
2022/09/27 13:28:53;;;;;;;1.67;0.80;;;;;;;;;;8292475;28;20037;-60
2022/09/27 13:33:15;;;;;;;1.67;0.80;;;;;;;;;;8297309;28;20797;-59
2022/09/27 13:37:21;;;;;;;2.78;0.90;;;;;;;;;;8296525;28;20143;-60
2022/09/27 13:41:22;;;;;;;3.55;0.80;;;;;;;;;;8295041;28;20026;-59
2022/09/27 13:45:28;;;;;;;2.00;1.02;;;;;;;;;;8294531;28;20055;-60
2022/09/27 13:49:38;;;;;;;5.75;0.80;;;;;;;;;;8327904;28;20032;-59
2022/09/27 13:53:39;;;;;;;1.55;0.77;;;;;;;;;;8327047;28;20435;-59
2022/09/27 13:57:41;;;;;;;1.55;0.50;;;;;;;;;;8330918;28;20075;-61
2022/09/27 14:01:45;;;;;;;1.95;0.90;;;;;;;;;;8325491;28;20745;-60
2022/09/27 14:05:49;;;;;;;0.60;0.60;;;;;;;;;;8326604;28;20020;-60
2022/09/27 14:09:53;;;;;;;3.10;0.88;;;;;;;;;;8327301;28;20040;-60
2022/09/27 14:13:54;;;;;;;1.10;0.80;;;;;;;;;;8309210;28;20103;-59
2022/09/27 14:17:55;;;;;;;3.80;0.85;;;;;;;;;;8326581;28;20966;-60
2022/09/27 14:21:55;;;;;;;4.72;0.88;;;;;;;;;;8329980;28;20689;-60
2022/09/27 14:25:57;;;;;;;1.27;0.70;;;;;;;;;;8325479;28;20565;-59
2022/09/27 14:30:03;;;;;;;3.63;0.95;;;;;;;;;;8324300;28;20013;-60
2022/09/27 14:34:06;;;;;;;2.53;0.80;;;;;;;;;;8327180;28;20049;-60
2022/09/27 14:38:08;;;;;;;2.15;1.10;;;;;;;;;;8323363;28;20116;-59
2022/09/27 14:42:21;;;;;;;1.95;0.88;;;;;;;;;;8322918;28;21025;-59
2022/09/27 14:46:26;;;;;;;2.03;0.80;;;;;;;;;;8322779;28;20551;-60
2022/09/27 14:50:28;;;;;;;1.42;1.00;;;;;;;;;;8317639;28;20839;-60
2022/09/27 14:54:30;;;;;;;0.63;0.63;;;;;;;;;;8320948;28;20025;-60
2022/09/27 14:58:31;;;;;;;0.60;0.60;;;;;;;;;;8323719;28;20020;-61
2022/09/27 15:02:32;;;;;;;1.70;0.60;;;;;;;;;;8322668;28;20430;-59
2022/09/27 15:06:36;;;;;;;1.48;0.63;;;;;;;;;;8317672;28;20025;-61
2022/09/27 15:10:37;;;;;;;3.13;0.80;;;;;;;;;;8322069;28;20020;-60
2022/09/27 15:14:41;;;;;;;1.27;0.70;;;;;;;;;;8323836;28;20054;-60
2022/09/27 15:18:45;;;;;;;0.75;0.57;;;;;;;;;;8321430;28;20485;-60
2022/09/27 15:22:46;;;;;;;0.50;0.50;;;;;;;;;;8318457;28;20025;-60
2022/09/27 15:26:49;;;;;;;2.53;0.70;;;;;;;;;;8326095;28;20043;-60
2022/09/27 15:30:55;;;;;;;0.65;0.65;;;;;;;;;;8321885;28;20837;-60
2022/09/27 15:34:56;;;;;;;0.60;0.60;;;;;;;;;;8326839;28;20035;-60
2022/09/27 15:39:06;;;;;;;1.63;0.50;;;;;;;;;;8317870;28;20068;-60
2022/09/27 15:43:17;;;;;;;0.80;0.63;;;;;;;;;;8321137;28;20036;-60
2022/09/27 15:47:39;;;;;;;1.17;0.70;;;;;;;;;;8324109;28;20024;-59
2022/09/27 15:51:40;;;;;;;0.80;0.68;;;;;;;;;;8324293;28;20032;-59
2022/09/27 15:55:42;;;;;;;0.90;0.50;;;;;;;;;;8325047;28;20497;-61
2022/09/27 15:59:42;;;;;;;1.15;0.82;;;;;;;;;;8322016;28;20052;-60
2022/09/27 16:03:43;;;;;;;1.73;0.80;;;;;;;;;;8323165;28;20045;-60
2022/09/27 16:07:43;;;;;;;1.35;0.80;;;;;;;;;;8325080;28;20124;-60
2022/09/27 16:11:48;;;;;;;0.85;0.60;;;;;;;;;;8323199;28;20023;-60
2022/09/27 16:15:48;;;;;;;;;;;;;;;;;;8318893;28;20040;-60
2022/09/27 16:19:49;;;;;;;0.73;0.73;;;;;;;;;;8322140;28;20015;-60
2022/09/27 16:23:49;;;;;;;3.13;0.98;;;;;;;;;;8315411;28;20040;-60
2022/09/27 16:27:51;;;;;;;2.72;0.73;;;;;;;;;;8321263;28;20021;-61
2022/09/27 16:31:52;;;;;;;1.70;0.90;;;;;;;;;;8319496;28;20120;-60
2022/09/27 16:35:54;;;;;;;2.88;1.00;;;;;;;;;;8320389;28;20028;-59
2022/09/27 16:39:54;;;;;;;1.77;1.60;;;;;;;;;;8318318;28;20143;-59
2022/09/27 16:43:55;;;;;;;6.43;3.00;;;;;;;;;;8319986;28;20407;-59
2022/09/27 16:47:55;;;;;;;3.58;1.60;;;;;;;;;;8319514;28;20409;-58
2022/09/27 16:52:01;;;;;;;3.20;1.45;;;;;;;;;;8317439;28;20024;-59
2022/09/27 16:56:01;;;;;;;2.55;0.88;;;;;;;;;;8313143;28;20064;-61
2022/09/27 17:00:02;;;;;;;5.63;1.30;;;;;;;;;;8321263;28;20026;-61
2022/09/27 17:04:03;;;;;;;4.38;1.05;;;;;;;;;;8299011;28;20725;-59
2022/09/27 17:08:04;;;;;;;1.93;1.00;;;;;;;;;;8296421;28;20115;-59
2022/09/27 17:12:04;;;;;;;3.50;0.88;;;;;;;;;;8301340;28;20260;-60
2022/09/27 17:16:05;;;;;;;1.38;1.02;;;;;;;;;;8294185;28;20044;-60
2022/09/27 17:20:05;;;;;;;2.05;0.95;;;;;;;;;;8287582;28;20077;-60
2022/09/27 17:24:06;;;;;;;3.92;0.82;;;;;;;;;;8288669;28;20041;-60
2022/09/27 17:28:06;;;;;;;3.15;1.10;;;;;;;;;;8291813;28;20843;-59
2022/09/27 17:32:07;;;;;;;2.55;1.10;;;;;;;;;;8290072;28;20085;-60
2022/09/27 17:36:08;;;;;;;0.85;0.80;;;;;;;;;;8293318;28;20490;-59
2022/09/27 17:40:09;;;;;;;0.70;0.70;;;;;;;;;;8291131;28;20039;-59
2022/09/27 17:44:13;;;;;;;1.40;0.80;;;;;;;;;;8295121;28;20127;-60
2022/09/27 17:52:33;;;;;;;2.67;0.77;;;;;;;;;;8291431;28;20068;-59
2022/09/27 17:56:36;;;;;;;1.17;0.80;;;;;;;;;;8291162;28;20043;-60
2022/09/27 18:00:37;;;;;;;1.33;0.90;;;;;;;;;;8291323;28;20876;-60
2022/09/27 18:04:37;;;;;;;2.05;0.73;;;;;;;;;;8289882;28;20368;-58
2022/09/27 18:08:37;;;;;;;2.22;0.75;;;;;;;;;;8289896;28;20029;-60
2022/09/27 18:12:38;;;;;;;3.35;0.80;;;;;;;;;;8286506;28;20017;-60
2022/09/27 18:16:41;;;;;;;3.88;1.98;;;;;;;;;;8291948;28;20069;-61
2022/09/27 18:20:41;;;;;;;1.20;1.10;;;;;;;;;;8290907;28;20554;-60
2022/09/27 18:24:42;;;;;;;1.13;1.00;;;;;;;;;;8288917;28;20889;-60
2022/09/27 18:28:42;;;;;;;3.35;1.30;;;;;;;;;;8289652;28;20064;-60
2022/09/27 18:32:42;;;;;;;1.55;1.20;;;;;;;;;;8290475;28;20862;-59
2022/09/27 18:36:43;;;;;;;1.87;1.13;;;;;;;;;;8290582;28;20033;-60
2022/09/27 18:40:43;;;;;;;1.35;1.00;;;;;;;;;;8289166;28;20276;-60
2022/09/27 18:44:44;;;;;;;1.65;0.90;;;;;;;;;;8291035;28;20123;-60
2022/09/27 18:48:44;;;;;;;2.78;1.10;;;;;;;;;;8292526;28;20029;-59
2022/09/27 18:52:44;;;;;;;2.45;0.70;;;;;;;;;;8289707;28;20963;-60
2022/09/27 18:56:45;;;;;;;1.30;0.90;;;;;;;;;;8288869;28;20088;-60
2022/09/27 19:00:46;;;;;;;0.95;0.75;;;;;;;;;;8289962;28;20866;-60
2022/09/27 19:04:46;;;;;;;2.85;1.05;;;;;;;;;;8286830;28;20818;-58
2022/09/27 19:08:46;;;;;;;1.10;0.90;;;;;;;;;;8287067;28;20479;-58
2022/09/27 19:12:46;;;;;;;1.20;0.80;;;;;;;;;;8288113;28;20022;-60
2022/09/27 19:16:47;;;;;;;1.23;0.83;;;;;;;;;;8287981;28;20037;-60
2022/09/27 19:20:47;;;;;;;2.33;0.90;;;;;;;;;;8289625;28;20286;-60
2022/09/27 19:24:47;;;;;;;2.65;1.20;;;;;;;;;;8290718;28;20048;-59
2022/09/27 19:28:48;;;;;;;2.13;1.30;;;;;;;;;;8287512;28;20043;-60
2022/09/27 19:32:51;;;;;;;1.67;1.20;;;;;;;;;;8288036;28;20494;-60
2022/09/27 19:36:51;;;;;;;2.60;1.55;;;;;;;;;;8289089;28;20548;-62
2022/09/27 19:40:52;;;;;;;3.55;1.50;;;;;;;;;;8286682;28;20675;-60
2022/09/27 19:44:52;;;;;;;3.58;1.40;;;;;;;;;;8291503;28;20030;-60
2022/09/27 19:48:54;;;;;;;4.13;1.45;;;;;;;;;;8286236;28;20033;-60
2022/09/27 19:52:54;;;;;;;2.88;1.33;;;;;;;;;;8289848;28;20061;-59
2022/09/27 19:56:54;;;;;;;5.60;1.30;;;;;;;;;;8290921;28;20028;-60
2022/09/27 20:01:02;;;;;;;1.77;1.00;;;;;;;;;;8287812;28;20072;-61
2022/09/27 20:05:02;;;;;;;4.07;1.55;;;;;;;;;;8288161;28;20032;-60
2022/09/27 20:09:03;;;;;;;1.75;1.20;;;;;;;;;;8287447;28;20049;-60
2022/09/27 20:13:03;;;;;;;1.77;1.13;;;;;;;;;;8284990;28;20034;-59
2022/09/27 20:17:03;;;;;;;2.80;1.13;;;;;;;;;;8290474;28;20034;-60
2022/09/27 20:21:04;;;;;;;1.05;0.88;;;;;;;;;;8288917;28;20582;-59
2022/09/27 20:25:04;;;;;;;2.25;1.05;;;;;;;;;;8287559;28;20030;-60
2022/09/27 20:29:05;;;;;;;2.65;0.80;;;;;;;;;;8285548;28;20017;-60
2022/09/27 20:37:24;;;;;;;1.10;0.70;;;;;;;;;;8285041;28;20075;-60
2022/09/27 20:41:24;;;;;;;2.50;0.90;;;;;;;;;;8290033;28;20021;-60
2022/09/27 20:45:24;;;;;;;1.98;0.82;;;;;;;;;;8287488;28;20037;-63
2022/09/27 20:49:25;;;;;;;2.13;0.85;;;;;;;;;;8289038;28;20029;-60
2022/09/27 20:53:25;;;;;;;1.35;0.82;;;;;;;;;;8289728;28;20049;-59
2022/09/27 20:57:26;;;;;;;2.00;0.90;;;;;;;;;;8296031;28;20021;-60
2022/09/27 21:01:27;;;;;;;4.05;1.33;;;;;;;;;;8291483;28;20021;-60
2022/09/27 21:05:27;;;;;;;4.78;1.60;;;;;;;;;;8294188;28;20021;-60
2022/09/27 21:09:27;;;;;;;3.58;1.75;;;;;;;;;;8295884;28;20608;-60
2022/09/27 21:13:27;;;;;;;1.73;1.47;;;;;;;;;;8295752;28;20025;-60
2022/09/27 21:17:28;;;;;;;5.25;1.38;;;;;;;;;;8291588;28;20804;-60
2022/09/27 21:21:28;;;;;;;5.00;1.55;;;;;;;;;;8291365;28;20049;-60
2022/09/27 21:25:29;;;;;;;2.08;1.35;;;;;;;;;;8290430;28;20087;-60
2022/09/27 21:29:29;;;;;;;1.63;1.40;;;;;;;;;;8294878;28;20569;-60
2022/09/27 21:33:29;;;;;;;4.78;1.90;;;;;;;;;;8289691;28;20896;-60
2022/09/27 21:37:29;;;;;;;7.20;2.97;;;;;;;;;;8294456;28;20025;-60
2022/09/27 21:41:30;;;;;;;3.72;1.83;;;;;;;;;;8290159;28;20124;-60
2022/09/27 21:45:30;;;;;;;3.67;1.20;;;;;;;;;;8291483;28;20425;-60
2022/09/27 21:49:32;;;;;;;2.70;1.30;;;;;;;;;;8292207;28;20103;-60
2022/09/27 21:53:33;;;;;;;3.08;1.50;;;;;;;;;;8293047;28;20267;-60
2022/09/27 21:57:34;;;;;;;1.80;1.17;;;;;;;;;;8292994;28;20030;-60
2022/09/27 22:01:34;;;;;;;3.15;1.33;;;;;;;;;;8287238;28;20038;-60
2022/09/27 22:05:41;;;;;;;3.00;1.38;;;;;;;;;;8290178;28;20029;-60
2022/09/27 22:09:41;;;;;;;2.08;1.50;;;;;;;;;;8289305;28;20030;-60
2022/09/27 22:13:42;;;;;;;2.20;1.30;;;;;;;;;;8294360;28;20095;-60
2022/09/27 22:17:42;;;;;;;4.25;1.40;;;;;;;;;;8292045;28;20384;-58
2022/09/27 22:21:43;;;;;;;1.17;1.13;;;;;;;;;;8293718;28;20124;-60
2022/09/27 22:25:43;;;;;;;2.20;1.20;;;;;;;;;;8294098;28;20417;-59
2022/09/27 22:29:43;;;;;;;2.25;1.25;;;;;;;;;;8293534;28;20075;-60
2022/09/27 22:33:50;;;;;;;1.48;1.02;;;;;;;;;;8292881;28;20124;-60
2022/09/27 22:37:51;;;;;;;2.05;1.23;;;;;;;;;;8292675;28;20870;-60
2022/09/27 22:41:51;;;;;;;2.85;1.40;;;;;;;;;;8293903;28;20505;-60
2022/09/27 22:45:51;;;;;;;1.60;1.00;;;;;;;;;;8293290;28;20049;-59
2022/09/27 22:49:52;;;;;;;2.90;0.90;;;;;;;;;;8290963;28;20730;-60
2022/09/27 22:53:52;;;;;;;0.88;0.85;;;;;;;;;;8291151;28;20060;-60
2022/09/27 22:57:52;;;;;;;2.58;1.10;;;;;;;;;;8292732;28;20025;-59
2022/09/27 23:01:52;;;;;;;3.85;0.90;;;;;;;;;;8291692;28;20127;-60
2022/09/27 23:05:52;;;;;;;2.25;1.02;;;;;;;;;;8290940;28;20029;-60
2022/09/27 23:09:53;;;;;;;2.42;1.05;;;;;;;;;;8289635;28;20446;-60
2022/09/27 23:13:53;;;;;;;0.93;0.70;;;;;;;;;;8293161;28;20029;-60
2022/09/27 23:17:56;;;;;;;1.58;0.90;;;;;;;;;;8291569;28;20117;-60
2022/09/27 23:21:57;;;;;;;1.67;0.82;;;;;;;;;;8289895;28;20618;-60
2022/09/27 23:26:01;;;;;;;1.30;0.90;;;;;;;;;;8294569;28;20033;-59
2022/09/27 23:30:01;;;;;;;2.20;0.60;;;;;;;;;;8292752;28;20094;-60
2022/09/27 23:34:03;;;;;;;0.75;0.60;;;;;;;;;;8292333;28;20375;-60
2022/09/27 23:38:03;;;;;;;1.15;0.63;;;;;;;;;;8289745;28;20021;-60
2022/09/27 23:42:03;;;;;;;1.10;0.80;;;;;;;;;;8292413;28;20136;-60
2022/09/27 23:46:04;;;;;;;4.63;0.98;;;;;;;;;;8289499;28;20036;-60
2022/09/27 23:50:05;;;;;;;0.80;0.70;;;;;;;;;;8292271;28;20017;-60
2022/09/27 23:54:05;;;;;;;1.45;0.90;;;;;;;;;;8288535;28;20013;-59
2022/09/27 23:58:06;;;;;;;1.80;0.90;;;;;;;;;;8289039;28;20021;-59
